sensor_id;sensor_type;location;lat;lon;timestamp;P1;durP1;ratioP1;P2;durP2;ratioP2
55065;SDS011;40964;42.114;24.220;2023-06-10T00:02:07;6.85;;;4.97;;
55065;SDS011;40964;42.114;24.220;2023-06-10T00:04:33;6.15;;;4.72;;
55065;SDS011;40964;42.114;24.220;2023-06-10T00:06:58;7.63;;;4.82;;
55065;SDS011;40964;42.114;24.220;2023-06-10T00:09:24;6.07;;;5.10;;
55065;SDS011;40964;42.114;24.220;2023-06-10T00:11:49;5.55;;;4.68;;
55065;SDS011;40964;42.114;24.220;2023-06-10T00:14:15;8.57;;;4.90;;
55065;SDS011;40964;42.114;24.220;2023-06-10T00:16:40;6.95;;;5.13;;
55065;SDS011;40964;42.114;24.220;2023-06-10T00:19:06;7.63;;;4.95;;
55065;SDS011;40964;42.114;24.220;2023-06-10T00:21:32;12.13;;;5.28;;
55065;SDS011;40964;42.114;24.220;2023-06-10T00:24:04;5.97;;;4.70;;
55065;SDS011;40964;42.114;24.220;2023-06-10T00:26:30;7.47;;;4.68;;
55065;SDS011;40964;42.114;24.220;2023-06-10T00:28:57;8.68;;;5.20;;
55065;SDS011;40964;42.114;24.220;2023-06-10T00:31:22;7.75;;;4.85;;
55065;SDS011;40964;42.114;24.220;2023-06-10T00:33:47;8.00;;;4.97;;
55065;SDS011;40964;42.114;24.220;2023-06-10T00:36:13;6.38;;;4.55;;
55065;SDS011;40964;42.114;24.220;2023-06-10T00:38:38;6.90;;;5.05;;
55065;SDS011;40964;42.114;24.220;2023-06-10T00:41:05;11.48;;;5.32;;
55065;SDS011;40964;42.114;24.220;2023-06-10T00:43:31;6.03;;;4.95;;
55065;SDS011;40964;42.114;24.220;2023-06-10T00:45:57;5.38;;;4.80;;
55065;SDS011;40964;42.114;24.220;2023-06-10T00:48:22;7.38;;;4.82;;
55065;SDS011;40964;42.114;24.220;2023-06-10T00:50:48;7.60;;;4.75;;
55065;SDS011;40964;42.114;24.220;2023-06-10T00:53:14;6.38;;;4.75;;
55065;SDS011;40964;42.114;24.220;2023-06-10T00:55:40;7.85;;;5.18;;
55065;SDS011;40964;42.114;24.220;2023-06-10T00:58:06;10.50;;;5.10;;
55065;SDS011;40964;42.114;24.220;2023-06-10T01:00:32;7.97;;;5.38;;
55065;SDS011;40964;42.114;24.220;2023-06-10T01:02:58;5.95;;;4.88;;
55065;SDS011;40964;42.114;24.220;2023-06-10T01:05:23;10.13;;;5.32;;
55065;SDS011;40964;42.114;24.220;2023-06-10T01:07:56;7.80;;;5.32;;
55065;SDS011;40964;42.114;24.220;2023-06-10T01:12:59;8.02;;;5.43;;
55065;SDS011;40964;42.114;24.220;2023-06-10T01:15:27;6.55;;;4.68;;
55065;SDS011;40964;42.114;24.220;2023-06-10T01:17:55;8.65;;;5.03;;
55065;SDS011;40964;42.114;24.220;2023-06-10T01:20:22;7.20;;;4.78;;
55065;SDS011;40964;42.114;24.220;2023-06-10T01:22:49;7.88;;;5.20;;
55065;SDS011;40964;42.114;24.220;2023-06-10T01:25:15;5.88;;;5.00;;
55065;SDS011;40964;42.114;24.220;2023-06-10T01:27:42;5.18;;;4.57;;
55065;SDS011;40964;42.114;24.220;2023-06-10T01:30:15;6.72;;;5.18;;
55065;SDS011;40964;42.114;24.220;2023-06-10T01:32:46;10.10;;;4.70;;
55065;SDS011;40964;42.114;24.220;2023-06-10T01:35:15;6.95;;;5.43;;
55065;SDS011;40964;42.114;24.220;2023-06-10T01:37:42;7.97;;;4.68;;
55065;SDS011;40964;42.114;24.220;2023-06-10T01:40:11;7.03;;;4.72;;
55065;SDS011;40964;42.114;24.220;2023-06-10T01:42:37;7.57;;;5.10;;
55065;SDS011;40964;42.114;24.220;2023-06-10T01:45:03;7.93;;;5.18;;
55065;SDS011;40964;42.114;24.220;2023-06-10T01:47:29;6.80;;;4.88;;
55065;SDS011;40964;42.114;24.220;2023-06-10T01:49:55;5.85;;;4.63;;
55065;SDS011;40964;42.114;24.220;2023-06-10T01:52:20;5.43;;;4.30;;
55065;SDS011;40964;42.114;24.220;2023-06-10T01:54:46;8.93;;;4.68;;
55065;SDS011;40964;42.114;24.220;2023-06-10T01:57:11;6.07;;;4.78;;
55065;SDS011;40964;42.114;24.220;2023-06-10T01:59:37;8.75;;;4.90;;
55065;SDS011;40964;42.114;24.220;2023-06-10T02:02:03;6.38;;;5.28;;
55065;SDS011;40964;42.114;24.220;2023-06-10T02:04:30;9.82;;;5.32;;
55065;SDS011;40964;42.114;24.220;2023-06-10T02:06:55;7.45;;;5.25;;
55065;SDS011;40964;42.114;24.220;2023-06-10T02:09:21;6.82;;;5.45;;
55065;SDS011;40964;42.114;24.220;2023-06-10T02:11:48;8.63;;;5.18;;
55065;SDS011;40964;42.114;24.220;2023-06-10T02:14:13;6.20;;;5.13;;
55065;SDS011;40964;42.114;24.220;2023-06-10T02:16:39;6.18;;;4.97;;
55065;SDS011;40964;42.114;24.220;2023-06-10T02:19:05;7.22;;;4.78;;
55065;SDS011;40964;42.114;24.220;2023-06-10T02:21:32;7.97;;;5.07;;
55065;SDS011;40964;42.114;24.220;2023-06-10T02:23:59;6.30;;;5.38;;
55065;SDS011;40964;42.114;24.220;2023-06-10T02:26:25;6.18;;;5.00;;
55065;SDS011;40964;42.114;24.220;2023-06-10T02:28:51;6.57;;;4.88;;
55065;SDS011;40964;42.114;24.220;2023-06-10T02:31:17;8.57;;;4.88;;
55065;SDS011;40964;42.114;24.220;2023-06-10T02:33:43;7.25;;;4.38;;
55065;SDS011;40964;42.114;24.220;2023-06-10T02:36:09;8.18;;;5.20;;
55065;SDS011;40964;42.114;24.220;2023-06-10T02:38:38;5.63;;;4.30;;
55065;SDS011;40964;42.114;24.220;2023-06-10T02:41:05;5.80;;;4.88;;
55065;SDS011;40964;42.114;24.220;2023-06-10T02:43:31;9.00;;;4.70;;
55065;SDS011;40964;42.114;24.220;2023-06-10T02:45:56;8.63;;;4.70;;
55065;SDS011;40964;42.114;24.220;2023-06-10T02:48:23;8.63;;;5.28;;
55065;SDS011;40964;42.114;24.220;2023-06-10T02:53:25;7.80;;;4.50;;
55065;SDS011;40964;42.114;24.220;2023-06-10T02:55:51;6.63;;;5.18;;
55065;SDS011;40964;42.114;24.220;2023-06-10T02:58:16;7.78;;;4.88;;
55065;SDS011;40964;42.114;24.220;2023-06-10T03:00:41;7.65;;;4.53;;
55065;SDS011;40964;42.114;24.220;2023-06-10T03:03:08;7.97;;;4.78;;
55065;SDS011;40964;42.114;24.220;2023-06-10T03:05:35;9.98;;;4.97;;
55065;SDS011;40964;42.114;24.220;2023-06-10T03:08:01;9.40;;;5.10;;
55065;SDS011;40964;42.114;24.220;2023-06-10T03:10:26;9.85;;;5.13;;
55065;SDS011;40964;42.114;24.220;2023-06-10T03:12:51;7.50;;;4.95;;
55065;SDS011;40964;42.114;24.220;2023-06-10T03:15:17;8.15;;;4.43;;
55065;SDS011;40964;42.114;24.220;2023-06-10T03:17:42;11.60;;;5.32;;
55065;SDS011;40964;42.114;24.220;2023-06-10T03:20:08;7.68;;;4.95;;
55065;SDS011;40964;42.114;24.220;2023-06-10T03:22:35;6.85;;;4.82;;
55065;SDS011;40964;42.114;24.220;2023-06-10T03:25:03;9.95;;;4.85;;
55065;SDS011;40964;42.114;24.220;2023-06-10T03:27:29;7.50;;;5.20;;
55065;SDS011;40964;42.114;24.220;2023-06-10T03:29:55;11.65;;;4.80;;
55065;SDS011;40964;42.114;24.220;2023-06-10T03:32:20;11.82;;;6.03;;
55065;SDS011;40964;42.114;24.220;2023-06-10T03:34:46;7.07;;;5.75;;
55065;SDS011;40964;42.114;24.220;2023-06-10T03:37:12;6.95;;;5.55;;
55065;SDS011;40964;42.114;24.220;2023-06-10T03:39:38;8.52;;;4.97;;
55065;SDS011;40964;42.114;24.220;2023-06-10T03:42:03;11.02;;;5.40;;
55065;SDS011;40964;42.114;24.220;2023-06-10T03:44:29;10.02;;;4.85;;
55065;SDS011;40964;42.114;24.220;2023-06-10T03:46:55;11.73;;;5.47;;
55065;SDS011;40964;42.114;24.220;2023-06-10T03:49:21;7.63;;;5.15;;
55065;SDS011;40964;42.114;24.220;2023-06-10T03:51:51;8.15;;;5.53;;
55065;SDS011;40964;42.114;24.220;2023-06-10T03:54:17;7.10;;;6.03;;
55065;SDS011;40964;42.114;24.220;2023-06-10T03:56:42;9.70;;;6.32;;
55065;SDS011;40964;42.114;24.220;2023-06-10T03:59:07;8.93;;;6.10;;
55065;SDS011;40964;42.114;24.220;2023-06-10T04:01:33;7.63;;;5.72;;
55065;SDS011;40964;42.114;24.220;2023-06-10T04:04:00;11.23;;;6.15;;
55065;SDS011;40964;42.114;24.220;2023-06-10T04:06:26;9.27;;;6.57;;
55065;SDS011;40964;42.114;24.220;2023-06-10T04:08:54;8.25;;;6.05;;
55065;SDS011;40964;42.114;24.220;2023-06-10T04:11:22;8.85;;;6.25;;
55065;SDS011;40964;42.114;24.220;2023-06-10T04:13:48;9.07;;;6.18;;
55065;SDS011;40964;42.114;24.220;2023-06-10T04:16:14;8.70;;;6.32;;
55065;SDS011;40964;42.114;24.220;2023-06-10T04:18:41;12.15;;;6.00;;
55065;SDS011;40964;42.114;24.220;2023-06-10T04:21:07;6.25;;;5.20;;
55065;SDS011;40964;42.114;24.220;2023-06-10T04:23:34;9.52;;;6.13;;
55065;SDS011;40964;42.114;24.220;2023-06-10T04:26:00;10.00;;;5.88;;
55065;SDS011;40964;42.114;24.220;2023-06-10T04:28:25;9.70;;;6.60;;
55065;SDS011;40964;42.114;24.220;2023-06-10T04:30:51;7.72;;;5.82;;
55065;SDS011;40964;42.114;24.220;2023-06-10T04:33:17;6.75;;;5.88;;
55065;SDS011;40964;42.114;24.220;2023-06-10T04:35:42;8.35;;;6.57;;
55065;SDS011;40964;42.114;24.220;2023-06-10T04:38:08;13.93;;;6.45;;
55065;SDS011;40964;42.114;24.220;2023-06-10T04:40:33;9.18;;;6.90;;
55065;SDS011;40964;42.114;24.220;2023-06-10T04:42:59;11.02;;;7.07;;
55065;SDS011;40964;42.114;24.220;2023-06-10T04:45:26;11.30;;;6.68;;
55065;SDS011;40964;42.114;24.220;2023-06-10T04:47:51;9.82;;;6.70;;
55065;SDS011;40964;42.114;24.220;2023-06-10T04:50:17;12.20;;;7.10;;
55065;SDS011;40964;42.114;24.220;2023-06-10T04:52:42;10.93;;;6.85;;
55065;SDS011;40964;42.114;24.220;2023-06-10T04:55:09;10.27;;;7.15;;
55065;SDS011;40964;42.114;24.220;2023-06-10T04:57:35;9.13;;;6.88;;
55065;SDS011;40964;42.114;24.220;2023-06-10T05:00:00;14.02;;;7.15;;
55065;SDS011;40964;42.114;24.220;2023-06-10T05:02:26;9.77;;;7.00;;
55065;SDS011;40964;42.114;24.220;2023-06-10T05:04:51;11.40;;;7.30;;
55065;SDS011;40964;42.114;24.220;2023-06-10T05:07:18;12.07;;;7.15;;
55065;SDS011;40964;42.114;24.220;2023-06-10T05:09:43;11.38;;;7.18;;
55065;SDS011;40964;42.114;24.220;2023-06-10T05:12:10;10.52;;;7.45;;
55065;SDS011;40964;42.114;24.220;2023-06-10T05:14:35;17.65;;;9.15;;
55065;SDS011;40964;42.114;24.220;2023-06-10T05:17:01;12.07;;;8.75;;
55065;SDS011;40964;42.114;24.220;2023-06-10T05:19:31;11.65;;;8.88;;
55065;SDS011;40964;42.114;24.220;2023-06-10T05:21:57;12.45;;;6.93;;
55065;SDS011;40964;42.114;24.220;2023-06-10T05:24:23;13.20;;;6.80;;
55065;SDS011;40964;42.114;24.220;2023-06-10T05:26:48;11.30;;;7.70;;
55065;SDS011;40964;42.114;24.220;2023-06-10T05:29:14;9.00;;;7.50;;
55065;SDS011;40964;42.114;24.220;2023-06-10T05:31:40;10.93;;;6.72;;
55065;SDS011;40964;42.114;24.220;2023-06-10T05:34:06;9.85;;;6.50;;
55065;SDS011;40964;42.114;24.220;2023-06-10T05:36:31;11.05;;;6.30;;
55065;SDS011;40964;42.114;24.220;2023-06-10T05:38:57;7.35;;;6.30;;
55065;SDS011;40964;42.114;24.220;2023-06-10T05:41:23;9.98;;;6.90;;
55065;SDS011;40964;42.114;24.220;2023-06-10T05:43:48;8.25;;;6.57;;
55065;SDS011;40964;42.114;24.220;2023-06-10T05:46:14;11.23;;;6.55;;
55065;SDS011;40964;42.114;24.220;2023-06-10T05:48:39;11.52;;;7.15;;
55065;SDS011;40964;42.114;24.220;2023-06-10T05:53:42;8.95;;;7.70;;
55065;SDS011;40964;42.114;24.220;2023-06-10T05:56:07;11.10;;;7.38;;
55065;SDS011;40964;42.114;24.220;2023-06-10T05:58:33;10.88;;;6.78;;
55065;SDS011;40964;42.114;24.220;2023-06-10T06:00:58;9.88;;;6.85;;
55065;SDS011;40964;42.114;24.220;2023-06-10T06:03:25;8.55;;;6.68;;
55065;SDS011;40964;42.114;24.220;2023-06-10T06:05:50;9.85;;;7.35;;
55065;SDS011;40964;42.114;24.220;2023-06-10T06:08:15;9.80;;;6.90;;
55065;SDS011;40964;42.114;24.220;2023-06-10T06:10:44;8.70;;;6.78;;
55065;SDS011;40964;42.114;24.220;2023-06-10T06:13:10;8.52;;;6.82;;
55065;SDS011;40964;42.114;24.220;2023-06-10T06:15:35;7.68;;;6.88;;
55065;SDS011;40964;42.114;24.220;2023-06-10T06:18:01;9.35;;;7.63;;
55065;SDS011;40964;42.114;24.220;2023-06-10T06:20:26;9.45;;;7.00;;
55065;SDS011;40964;42.114;24.220;2023-06-10T06:22:52;10.15;;;7.22;;
55065;SDS011;40964;42.114;24.220;2023-06-10T06:25:17;9.55;;;7.38;;
55065;SDS011;40964;42.114;24.220;2023-06-10T06:27:43;8.02;;;6.78;;
55065;SDS011;40964;42.114;24.220;2023-06-10T06:30:08;9.30;;;6.43;;
55065;SDS011;40964;42.114;24.220;2023-06-10T06:32:34;10.18;;;6.75;;
55065;SDS011;40964;42.114;24.220;2023-06-10T06:35:00;12.60;;;7.10;;
55065;SDS011;40964;42.114;24.220;2023-06-10T06:37:25;9.98;;;7.30;;
55065;SDS011;40964;42.114;24.220;2023-06-10T06:39:51;10.80;;;7.03;;
55065;SDS011;40964;42.114;24.220;2023-06-10T06:42:18;12.13;;;6.55;;
55065;SDS011;40964;42.114;24.220;2023-06-10T06:44:44;10.07;;;6.50;;
55065;SDS011;40964;42.114;24.220;2023-06-10T06:47:10;7.45;;;6.10;;
55065;SDS011;40964;42.114;24.220;2023-06-10T06:49:35;7.03;;;6.05;;
55065;SDS011;40964;42.114;24.220;2023-06-10T06:52:01;8.75;;;6.40;;
55065;SDS011;40964;42.114;24.220;2023-06-10T06:54:27;10.25;;;5.88;;
55065;SDS011;40964;42.114;24.220;2023-06-10T06:56:52;10.10;;;6.25;;
55065;SDS011;40964;42.114;24.220;2023-06-10T06:59:18;10.63;;;6.70;;
55065;SDS011;40964;42.114;24.220;2023-06-10T07:01:44;9.18;;;7.03;;
55065;SDS011;40964;42.114;24.220;2023-06-10T07:04:10;10.50;;;6.68;;
55065;SDS011;40964;42.114;24.220;2023-06-10T07:06:36;11.43;;;6.00;;
55065;SDS011;40964;42.114;24.220;2023-06-10T07:09:01;8.02;;;5.43;;
55065;SDS011;40964;42.114;24.220;2023-06-10T07:11:27;9.15;;;6.47;;
55065;SDS011;40964;42.114;24.220;2023-06-10T07:13:52;8.07;;;6.35;;
55065;SDS011;40964;42.114;24.220;2023-06-10T07:16:18;8.30;;;6.05;;
55065;SDS011;40964;42.114;24.220;2023-06-10T07:18:45;6.93;;;5.70;;
55065;SDS011;40964;42.114;24.220;2023-06-10T07:21:11;8.45;;;5.90;;
55065;SDS011;40964;42.114;24.220;2023-06-10T07:23:36;8.70;;;5.97;;
55065;SDS011;40964;42.114;24.220;2023-06-10T07:26:02;8.10;;;6.35;;
55065;SDS011;40964;42.114;24.220;2023-06-10T07:28:27;7.78;;;5.88;;
55065;SDS011;40964;42.114;24.220;2023-06-10T07:30:53;7.10;;;5.07;;
55065;SDS011;40964;42.114;24.220;2023-06-10T07:33:18;6.18;;;5.57;;
55065;SDS011;40964;42.114;24.220;2023-06-10T07:35:44;6.22;;;5.57;;
55065;SDS011;40964;42.114;24.220;2023-06-10T07:38:09;5.95;;;5.40;;
55065;SDS011;40964;42.114;24.220;2023-06-10T07:40:35;6.10;;;5.50;;
55065;SDS011;40964;42.114;24.220;2023-06-10T07:43:00;7.45;;;5.75;;
55065;SDS011;40964;42.114;24.220;2023-06-10T07:45:26;5.47;;;4.97;;
55065;SDS011;40964;42.114;24.220;2023-06-10T07:47:51;7.43;;;4.82;;
55065;SDS011;40964;42.114;24.220;2023-06-10T07:50:17;5.10;;;4.60;;
55065;SDS011;40964;42.114;24.220;2023-06-10T07:52:42;6.03;;;5.25;;
55065;SDS011;40964;42.114;24.220;2023-06-10T07:55:08;9.80;;;5.82;;
55065;SDS011;40964;42.114;24.220;2023-06-10T07:57:34;10.13;;;6.22;;
55065;SDS011;40964;42.114;24.220;2023-06-10T08:00:02;8.52;;;5.97;;
55065;SDS011;40964;42.114;24.220;2023-06-10T08:02:29;9.05;;;5.70;;
55065;SDS011;40964;42.114;24.220;2023-06-10T08:04:55;8.15;;;6.00;;
55065;SDS011;40964;42.114;24.220;2023-06-10T08:07:21;7.85;;;6.15;;
55065;SDS011;40964;42.114;24.220;2023-06-10T08:09:47;6.97;;;6.13;;
55065;SDS011;40964;42.114;24.220;2023-06-10T08:12:12;9.90;;;6.05;;
55065;SDS011;40964;42.114;24.220;2023-06-10T08:14:38;9.82;;;5.60;;
55065;SDS011;40964;42.114;24.220;2023-06-10T08:17:04;9.55;;;5.35;;
55065;SDS011;40964;42.114;24.220;2023-06-10T08:19:31;9.07;;;6.00;;
55065;SDS011;40964;42.114;24.220;2023-06-10T08:21:56;8.15;;;6.30;;
55065;SDS011;40964;42.114;24.220;2023-06-10T08:24:22;10.93;;;5.82;;
55065;SDS011;40964;42.114;24.220;2023-06-10T08:26:47;10.98;;;6.30;;
55065;SDS011;40964;42.114;24.220;2023-06-10T08:29:13;7.47;;;6.40;;
55065;SDS011;40964;42.114;24.220;2023-06-10T08:31:42;11.38;;;6.22;;
55065;SDS011;40964;42.114;24.220;2023-06-10T08:34:08;10.13;;;6.40;;
55065;SDS011;40964;42.114;24.220;2023-06-10T08:36:34;8.25;;;6.30;;
55065;SDS011;40964;42.114;24.220;2023-06-10T08:38:59;6.90;;;5.93;;
55065;SDS011;40964;42.114;24.220;2023-06-10T08:41:25;8.32;;;5.95;;
55065;SDS011;40964;42.114;24.220;2023-06-10T08:46:52;11.93;;;6.40;;
55065;SDS011;40964;42.114;24.220;2023-06-10T08:49:19;10.88;;;6.47;;
55065;SDS011;40964;42.114;24.220;2023-06-10T08:51:49;9.00;;;5.80;;
55065;SDS011;40964;42.114;24.220;2023-06-10T08:54:17;8.13;;;5.82;;
55065;SDS011;40964;42.114;24.220;2023-06-10T08:56:47;10.23;;;5.55;;
55065;SDS011;40964;42.114;24.220;2023-06-10T08:59:16;13.02;;;6.47;;
55065;SDS011;40964;42.114;24.220;2023-06-10T09:01:42;15.07;;;6.05;;
55065;SDS011;40964;42.114;24.220;2023-06-10T09:04:09;8.40;;;5.95;;
55065;SDS011;40964;42.114;24.220;2023-06-10T09:06:36;16.00;;;5.38;;
55065;SDS011;40964;42.114;24.220;2023-06-10T09:09:05;9.93;;;5.68;;
55065;SDS011;40964;42.114;24.220;2023-06-10T09:11:31;14.90;;;5.80;;
55065;SDS011;40964;42.114;24.220;2023-06-10T09:13:57;12.82;;;5.07;;
55065;SDS011;40964;42.114;24.220;2023-06-10T09:16:23;7.40;;;4.95;;
55065;SDS011;40964;42.114;24.220;2023-06-10T09:18:49;8.38;;;5.20;;
55065;SDS011;40964;42.114;24.220;2023-06-10T09:21:20;6.45;;;4.80;;
55065;SDS011;40964;42.114;24.220;2023-06-10T09:23:50;9.10;;;4.68;;
55065;SDS011;40964;42.114;24.220;2023-06-10T09:26:16;5.53;;;4.93;;
55065;SDS011;40964;42.114;24.220;2023-06-10T09:28:47;7.10;;;5.40;;
55065;SDS011;40964;42.114;24.220;2023-06-10T09:31:14;12.50;;;5.10;;
55065;SDS011;40964;42.114;24.220;2023-06-10T09:33:43;8.43;;;5.72;;
55065;SDS011;40964;42.114;24.220;2023-06-10T09:36:09;7.10;;;5.43;;
55065;SDS011;40964;42.114;24.220;2023-06-10T09:38:36;6.05;;;4.93;;
55065;SDS011;40964;42.114;24.220;2023-06-10T09:41:03;9.02;;;6.05;;
55065;SDS011;40964;42.114;24.220;2023-06-10T09:43:44;8.48;;;5.07;;
55065;SDS011;40964;42.114;24.220;2023-06-10T09:46:14;8.85;;;5.68;;
55065;SDS011;40964;42.114;24.220;2023-06-10T09:48:44;10.33;;;5.87;;
55065;SDS011;40964;42.114;24.220;2023-06-10T09:51:12;7.95;;;5.32;;
55065;SDS011;40964;42.114;24.220;2023-06-10T09:53:38;8.25;;;5.20;;
55065;SDS011;40964;42.114;24.220;2023-06-10T09:56:05;7.82;;;5.13;;
55065;SDS011;40964;42.114;24.220;2023-06-10T09:58:39;7.63;;;5.28;;
55065;SDS011;40964;42.114;24.220;2023-06-10T10:01:08;5.88;;;4.72;;
55065;SDS011;40964;42.114;24.220;2023-06-10T10:03:51;7.13;;;4.93;;
55065;SDS011;40964;42.114;24.220;2023-06-10T10:06:17;5.60;;;4.90;;
55065;SDS011;40964;42.114;24.220;2023-06-10T10:08:44;6.35;;;5.00;;
55065;SDS011;40964;42.114;24.220;2023-06-10T10:11:12;5.60;;;4.68;;
55065;SDS011;40964;42.114;24.220;2023-06-10T10:13:39;6.30;;;5.30;;
55065;SDS011;40964;42.114;24.220;2023-06-10T10:16:12;8.98;;;4.70;;
55065;SDS011;40964;42.114;24.220;2023-06-10T10:18:49;8.15;;;4.88;;
55065;SDS011;40964;42.114;24.220;2023-06-10T10:21:20;5.65;;;4.22;;
55065;SDS011;40964;42.114;24.220;2023-06-10T10:24:12;7.15;;;4.30;;
55065;SDS011;40964;42.114;24.220;2023-06-10T10:26:42;6.32;;;5.00;;
55065;SDS011;40964;42.114;24.220;2023-06-10T10:29:13;6.28;;;4.63;;
55065;SDS011;40964;42.114;24.220;2023-06-10T10:31:40;6.88;;;4.75;;
55065;SDS011;40964;42.114;24.220;2023-06-10T10:34:15;5.47;;;4.68;;
55065;SDS011;40964;42.114;24.220;2023-06-10T10:36:43;5.78;;;4.38;;
55065;SDS011;40964;42.114;24.220;2023-06-10T10:39:09;6.03;;;4.10;;
55065;SDS011;40964;42.114;24.220;2023-06-10T10:41:36;6.07;;;4.50;;
55065;SDS011;40964;42.114;24.220;2023-06-10T10:44:03;7.22;;;4.60;;
55065;SDS011;40964;42.114;24.220;2023-06-10T10:46:41;4.93;;;4.40;;
55065;SDS011;40964;42.114;24.220;2023-06-10T10:49:13;6.00;;;4.70;;
55065;SDS011;40964;42.114;24.220;2023-06-10T10:51:59;5.15;;;4.32;;
55065;SDS011;40964;42.114;24.220;2023-06-10T10:54:32;6.80;;;5.30;;
55065;SDS011;40964;42.114;24.220;2023-06-10T11:02:15;6.32;;;4.60;;
55065;SDS011;40964;42.114;24.220;2023-06-10T11:04:48;6.65;;;4.60;;
55065;SDS011;40964;42.114;24.220;2023-06-10T11:07:14;5.05;;;4.50;;
55065;SDS011;40964;42.114;24.220;2023-06-10T11:13:32;6.95;;;4.93;;
55065;SDS011;40964;42.114;24.220;2023-06-10T11:15:43;9.30;;;4.97;;
55065;SDS011;40964;42.114;24.220;2023-06-10T11:18:24;5.28;;;4.47;;
55065;SDS011;40964;42.114;24.220;2023-06-10T11:20:57;6.72;;;4.90;;
55065;SDS011;40964;42.114;24.220;2023-06-10T11:34:03;5.28;;;4.72;;
55065;SDS011;40964;42.114;24.220;2023-06-10T11:36:30;6.47;;;4.55;;
55065;SDS011;40964;42.114;24.220;2023-06-10T11:38:57;4.45;;;4.05;;
55065;SDS011;40964;42.114;24.220;2023-06-10T11:41:24;6.93;;;4.88;;
55065;SDS011;40964;42.114;24.220;2023-06-10T11:43:51;6.47;;;4.65;;
55065;SDS011;40964;42.114;24.220;2023-06-10T11:46:18;7.70;;;4.65;;
55065;SDS011;40964;42.114;24.220;2023-06-10T11:48:49;5.10;;;4.65;;
55065;SDS011;40964;42.114;24.220;2023-06-10T11:51:19;4.95;;;4.53;;
55065;SDS011;40964;42.114;24.220;2023-06-10T11:53:46;7.78;;;4.60;;
55065;SDS011;40964;42.114;24.220;2023-06-10T11:56:12;4.95;;;4.25;;
55065;SDS011;40964;42.114;24.220;2023-06-10T11:58:38;6.07;;;4.82;;
55065;SDS011;40964;42.114;24.220;2023-06-10T12:01:08;6.05;;;4.85;;
55065;SDS011;40964;42.114;24.220;2023-06-10T12:03:37;7.20;;;4.80;;
55065;SDS011;40964;42.114;24.220;2023-06-10T12:06:04;5.63;;;4.38;;
55065;SDS011;40964;42.114;24.220;2023-06-10T12:08:30;8.32;;;5.05;;
55065;SDS011;40964;42.114;24.220;2023-06-10T12:10:57;9.27;;;4.50;;
55065;SDS011;40964;42.114;24.220;2023-06-10T12:13:23;5.45;;;4.47;;
55065;SDS011;40964;42.114;24.220;2023-06-10T12:15:51;8.25;;;4.57;;
55065;SDS011;40964;42.114;24.220;2023-06-10T12:20:43;6.82;;;4.63;;
55065;SDS011;40964;42.114;24.220;2023-06-10T12:23:09;6.35;;;4.50;;
55065;SDS011;40964;42.114;24.220;2023-06-10T12:25:35;6.88;;;4.80;;
55065;SDS011;40964;42.114;24.220;2023-06-10T12:28:05;4.97;;;4.30;;
55065;SDS011;40964;42.114;24.220;2023-06-10T12:30:31;5.53;;;4.30;;
55065;SDS011;40964;42.114;24.220;2023-06-10T12:32:58;4.43;;;4.03;;
55065;SDS011;40964;42.114;24.220;2023-06-10T12:35:24;7.72;;;4.25;;
55065;SDS011;40964;42.114;24.220;2023-06-10T12:37:57;7.75;;;4.75;;
55065;SDS011;40964;42.114;24.220;2023-06-10T12:40:36;5.10;;;4.50;;
55065;SDS011;40964;42.114;24.220;2023-06-10T12:43:05;5.70;;;4.03;;
55065;SDS011;40964;42.114;24.220;2023-06-10T12:50:50;6.07;;;4.38;;
55065;SDS011;40964;42.114;24.220;2023-06-10T12:53:19;5.32;;;4.05;;
55065;SDS011;40964;42.114;24.220;2023-06-10T12:55:46;4.60;;;4.10;;
55065;SDS011;40964;42.114;24.220;2023-06-10T12:58:12;4.85;;;4.35;;
55065;SDS011;40964;42.114;24.220;2023-06-10T13:00:38;6.10;;;4.00;;
55065;SDS011;40964;42.114;24.220;2023-06-10T13:03:04;4.95;;;4.28;;
55065;SDS011;40964;42.114;24.220;2023-06-10T13:05:34;6.00;;;4.40;;
55065;SDS011;40964;42.114;24.220;2023-06-10T13:08:05;4.72;;;4.00;;
55065;SDS011;40964;42.114;24.220;2023-06-10T13:10:32;4.80;;;4.05;;
55065;SDS011;40964;42.114;24.220;2023-06-10T13:12:58;6.30;;;4.00;;
55065;SDS011;40964;42.114;24.220;2023-06-10T13:15:25;5.78;;;4.13;;
55065;SDS011;40964;42.114;24.220;2023-06-10T13:17:51;4.65;;;4.25;;
55065;SDS011;40964;42.114;24.220;2023-06-10T13:20:17;5.60;;;4.07;;
55065;SDS011;40964;42.114;24.220;2023-06-10T13:22:43;7.15;;;4.13;;
55065;SDS011;40964;42.114;24.220;2023-06-10T13:25:09;4.85;;;4.30;;
55065;SDS011;40964;42.114;24.220;2023-06-10T13:27:35;6.72;;;4.40;;
55065;SDS011;40964;42.114;24.220;2023-06-10T13:30:04;8.60;;;4.70;;
55065;SDS011;40964;42.114;24.220;2023-06-10T13:32:34;5.75;;;4.97;;
55065;SDS011;40964;42.114;24.220;2023-06-10T13:34:59;9.90;;;4.78;;
55065;SDS011;40964;42.114;24.220;2023-06-10T13:37:25;6.57;;;5.32;;
55065;SDS011;40964;42.114;24.220;2023-06-10T13:39:51;6.68;;;4.40;;
55065;SDS011;40964;42.114;24.220;2023-06-10T13:42:20;5.60;;;4.38;;
55065;SDS011;40964;42.114;24.220;2023-06-10T13:44:46;6.32;;;4.97;;
55065;SDS011;40964;42.114;24.220;2023-06-10T13:47:16;8.02;;;4.35;;
55065;SDS011;40964;42.114;24.220;2023-06-10T13:49:42;4.95;;;4.30;;
55065;SDS011;40964;42.114;24.220;2023-06-10T13:52:08;4.93;;;4.43;;
55065;SDS011;40964;42.114;24.220;2023-06-10T13:54:33;6.75;;;4.47;;
55065;SDS011;40964;42.114;24.220;2023-06-10T13:57:02;8.52;;;4.82;;
55065;SDS011;40964;42.114;24.220;2023-06-10T13:59:28;8.35;;;5.47;;
55065;SDS011;40964;42.114;24.220;2023-06-10T14:01:54;8.75;;;5.13;;
55065;SDS011;40964;42.114;24.220;2023-06-10T14:04:20;10.35;;;4.43;;
55065;SDS011;40964;42.114;24.220;2023-06-10T14:59:39;6.97;;;4.53;;
55065;SDS011;40964;42.114;24.220;2023-06-10T15:02:05;15.07;;;6.20;;
55065;SDS011;40964;42.114;24.220;2023-06-10T15:04:31;10.93;;;6.60;;
55065;SDS011;40964;42.114;24.220;2023-06-10T15:06:56;6.13;;;4.30;;
55065;SDS011;40964;42.114;24.220;2023-06-10T15:09:21;6.05;;;4.95;;
55065;SDS011;40964;42.114;24.220;2023-06-10T15:11:47;8.30;;;4.63;;
55065;SDS011;40964;42.114;24.220;2023-06-10T15:14:12;7.10;;;4.95;;
55065;SDS011;40964;42.114;24.220;2023-06-10T15:16:38;11.05;;;6.82;;
55065;SDS011;40964;42.114;24.220;2023-06-10T15:19:03;10.88;;;6.65;;
55065;SDS011;40964;42.114;24.220;2023-06-10T15:21:31;7.00;;;5.43;;
55065;SDS011;40964;42.114;24.220;2023-06-10T15:23:57;7.30;;;6.07;;
55065;SDS011;40964;42.114;24.220;2023-06-10T15:26:23;5.15;;;4.65;;
55065;SDS011;40964;42.114;24.220;2023-06-10T15:28:48;7.38;;;4.90;;
55065;SDS011;40964;42.114;24.220;2023-06-10T15:31:14;7.60;;;4.93;;
55065;SDS011;40964;42.114;24.220;2023-06-10T15:33:39;6.53;;;4.43;;
55065;SDS011;40964;42.114;24.220;2023-06-10T15:36:05;9.55;;;4.85;;
55065;SDS011;40964;42.114;24.220;2023-06-10T15:38:31;5.75;;;4.70;;
55065;SDS011;40964;42.114;24.220;2023-06-10T15:40:56;5.60;;;4.93;;
55065;SDS011;40964;42.114;24.220;2023-06-10T15:43:22;5.55;;;4.20;;
55065;SDS011;40964;42.114;24.220;2023-06-10T15:45:48;9.45;;;4.40;;
55065;SDS011;40964;42.114;24.220;2023-06-10T15:48:13;6.45;;;4.38;;
55065;SDS011;40964;42.114;24.220;2023-06-10T15:50:38;5.82;;;4.20;;
55065;SDS011;40964;42.114;24.220;2023-06-10T15:53:04;8.52;;;4.60;;
55065;SDS011;40964;42.114;24.220;2023-06-10T15:55:29;7.63;;;4.75;;
55065;SDS011;40964;42.114;24.220;2023-06-10T15:57:55;6.22;;;4.20;;
55065;SDS011;40964;42.114;24.220;2023-06-10T16:00:22;6.70;;;4.40;;